sensor_id;sensor_type;location;lat;lon;timestamp;P1;durP1;ratioP1;P2;durP2;ratioP2
7527;SDS011;3805;49.006;8.514;2023-03-31T00:01:30;5.23;;;4.10;;
7527;SDS011;3805;49.006;8.514;2023-03-31T00:04:19;4.77;;;3.70;;
7527;SDS011;3805;49.006;8.514;2023-03-31T00:07:11;5.17;;;4.60;;
7527;SDS011;3805;49.006;8.514;2023-03-31T00:10:02;6.90;;;4.83;;
7527;SDS011;3805;49.006;8.514;2023-03-31T00:13:04;6.60;;;4.80;;
7527;SDS011;3805;49.006;8.514;2023-03-31T00:15:55;4.67;;;4.10;;
7527;SDS011;3805;49.006;8.514;2023-03-31T00:18:44;7.70;;;4.50;;
7527;SDS011;3805;49.006;8.514;2023-03-31T00:21:33;8.07;;;4.87;;
7527;SDS011;3805;49.006;8.514;2023-03-31T00:24:23;7.90;;;4.30;;
7527;SDS011;3805;49.006;8.514;2023-03-31T00:27:13;6.93;;;4.50;;
7527;SDS011;3805;49.006;8.514;2023-03-31T00:30:01;3.83;;;3.40;;
7527;SDS011;3805;49.006;8.514;2023-03-31T00:32:50;5.50;;;3.43;;
7527;SDS011;3805;49.006;8.514;2023-03-31T00:35:39;6.70;;;4.20;;
7527;SDS011;3805;49.006;8.514;2023-03-31T00:38:27;3.73;;;3.00;;
7527;SDS011;3805;49.006;8.514;2023-03-31T00:41:17;6.47;;;3.70;;
7527;SDS011;3805;49.006;8.514;2023-03-31T00:44:10;4.53;;;3.03;;
7527;SDS011;3805;49.006;8.514;2023-03-31T00:47:00;4.77;;;2.90;;
7527;SDS011;3805;49.006;8.514;2023-03-31T00:49:52;3.77;;;2.73;;
7527;SDS011;3805;49.006;8.514;2023-03-31T00:52:43;5.03;;;2.97;;
7527;SDS011;3805;49.006;8.514;2023-03-31T00:55:33;5.03;;;2.80;;
7527;SDS011;3805;49.006;8.514;2023-03-31T00:58:24;3.93;;;3.00;;
7527;SDS011;3805;49.006;8.514;2023-03-31T01:01:17;4.60;;;3.20;;
7527;SDS011;3805;49.006;8.514;2023-03-31T01:04:10;3.27;;;2.67;;
7527;SDS011;3805;49.006;8.514;2023-03-31T01:07:04;14.80;;;3.50;;
7527;SDS011;3805;49.006;8.514;2023-03-31T01:09:56;9.70;;;3.20;;
7527;SDS011;3805;49.006;8.514;2023-03-31T01:12:46;7.80;;;2.53;;
7527;SDS011;3805;49.006;8.514;2023-03-31T01:15:37;5.67;;;2.47;;
7527;SDS011;3805;49.006;8.514;2023-03-31T01:18:27;3.77;;;1.80;;
7527;SDS011;3805;49.006;8.514;2023-03-31T01:25:08;4.20;;;2.30;;
7527;SDS011;3805;49.006;8.514;2023-03-31T01:28:22;3.03;;;2.13;;
7527;SDS011;3805;49.006;8.514;2023-03-31T01:31:34;7.47;;;2.47;;
7527;SDS011;3805;49.006;8.514;2023-03-31T01:41:09;5.57;;;2.27;;
7527;SDS011;3805;49.006;8.514;2023-03-31T01:44:06;5.00;;;2.30;;
7527;SDS011;3805;49.006;8.514;2023-03-31T01:47:04;3.27;;;2.10;;
7527;SDS011;3805;49.006;8.514;2023-03-31T01:49:56;5.03;;;1.90;;
7527;SDS011;3805;49.006;8.514;2023-03-31T01:52:48;3.83;;;2.23;;
7527;SDS011;3805;49.006;8.514;2023-03-31T01:55:40;2.80;;;2.47;;
7527;SDS011;3805;49.006;8.514;2023-03-31T01:58:33;8.50;;;2.43;;
7527;SDS011;3805;49.006;8.514;2023-03-31T02:01:26;9.93;;;2.10;;
7527;SDS011;3805;49.006;8.514;2023-03-31T02:04:18;7.33;;;3.30;;
7527;SDS011;3805;49.006;8.514;2023-03-31T02:07:09;2.73;;;2.17;;
7527;SDS011;3805;49.006;8.514;2023-03-31T02:10:02;4.20;;;2.67;;
7527;SDS011;3805;49.006;8.514;2023-03-31T02:12:52;4.90;;;2.53;;
7527;SDS011;3805;49.006;8.514;2023-03-31T02:15:44;4.33;;;3.40;;
7527;SDS011;3805;49.006;8.514;2023-03-31T02:18:35;4.60;;;3.07;;
7527;SDS011;3805;49.006;8.514;2023-03-31T02:21:27;7.40;;;2.87;;
7527;SDS011;3805;49.006;8.514;2023-03-31T02:24:17;7.60;;;3.90;;
7527;SDS011;3805;49.006;8.514;2023-03-31T02:27:08;3.83;;;2.87;;
7527;SDS011;3805;49.006;8.514;2023-03-31T02:30:00;6.23;;;3.10;;
7527;SDS011;3805;49.006;8.514;2023-03-31T02:32:51;4.03;;;3.50;;
7527;SDS011;3805;49.006;8.514;2023-03-31T02:35:39;5.87;;;2.77;;
7527;SDS011;3805;49.006;8.514;2023-03-31T02:38:29;7.10;;;2.97;;
7527;SDS011;3805;49.006;8.514;2023-03-31T02:41:19;3.90;;;2.57;;
7527;SDS011;3805;49.006;8.514;2023-03-31T02:44:08;6.17;;;2.97;;
7527;SDS011;3805;49.006;8.514;2023-03-31T02:46:57;3.03;;;2.60;;
7527;SDS011;3805;49.006;8.514;2023-03-31T02:49:47;3.23;;;2.70;;
7527;SDS011;3805;49.006;8.514;2023-03-31T02:52:41;4.60;;;3.10;;
7527;SDS011;3805;49.006;8.514;2023-03-31T02:55:40;4.20;;;2.73;;
7527;SDS011;3805;49.006;8.514;2023-03-31T02:58:37;4.97;;;2.87;;
7527;SDS011;3805;49.006;8.514;2023-03-31T03:01:42;9.63;;;3.57;;
7527;SDS011;3805;49.006;8.514;2023-03-31T03:04:44;5.87;;;2.83;;
7527;SDS011;3805;49.006;8.514;2023-03-31T03:07:44;7.07;;;3.33;;
7527;SDS011;3805;49.006;8.514;2023-03-31T03:10:36;5.87;;;3.40;;
7527;SDS011;3805;49.006;8.514;2023-03-31T03:13:30;6.87;;;3.50;;
7527;SDS011;3805;49.006;8.514;2023-03-31T03:16:23;7.33;;;3.80;;
7527;SDS011;3805;49.006;8.514;2023-03-31T03:19:16;4.47;;;3.10;;
7527;SDS011;3805;49.006;8.514;2023-03-31T03:22:07;5.23;;;3.00;;
7527;SDS011;3805;49.006;8.514;2023-03-31T03:24:56;6.23;;;3.10;;
7527;SDS011;3805;49.006;8.514;2023-03-31T03:27:45;6.47;;;3.87;;
7527;SDS011;3805;49.006;8.514;2023-03-31T03:30:33;4.47;;;3.83;;
7527;SDS011;3805;49.006;8.514;2023-03-31T03:33:22;6.40;;;3.33;;
7527;SDS011;3805;49.006;8.514;2023-03-31T03:36:11;5.13;;;3.80;;
7527;SDS011;3805;49.006;8.514;2023-03-31T03:39:01;6.10;;;3.53;;
7527;SDS011;3805;49.006;8.514;2023-03-31T03:41:50;5.07;;;3.00;;
7527;SDS011;3805;49.006;8.514;2023-03-31T03:44:39;4.70;;;3.30;;
7527;SDS011;3805;49.006;8.514;2023-03-31T03:47:27;8.50;;;3.50;;
7527;SDS011;3805;49.006;8.514;2023-03-31T03:50:16;7.73;;;3.73;;
7527;SDS011;3805;49.006;8.514;2023-03-31T03:53:05;4.10;;;3.70;;
7527;SDS011;3805;49.006;8.514;2023-03-31T03:55:55;9.13;;;4.00;;
7527;SDS011;3805;49.006;8.514;2023-03-31T03:58:45;5.37;;;3.30;;
7527;SDS011;3805;49.006;8.514;2023-03-31T04:01:33;6.40;;;3.07;;
7527;SDS011;3805;49.006;8.514;2023-03-31T04:04:22;3.90;;;3.00;;
7527;SDS011;3805;49.006;8.514;2023-03-31T04:07:10;8.60;;;3.83;;
7527;SDS011;3805;49.006;8.514;2023-03-31T04:09:59;5.40;;;3.80;;
7527;SDS011;3805;49.006;8.514;2023-03-31T04:12:49;4.10;;;3.50;;
7527;SDS011;3805;49.006;8.514;2023-03-31T04:15:37;7.63;;;3.30;;
7527;SDS011;3805;49.006;8.514;2023-03-31T04:18:26;7.17;;;3.40;;
7527;SDS011;3805;49.006;8.514;2023-03-31T04:21:14;6.67;;;3.63;;
7527;SDS011;3805;49.006;8.514;2023-03-31T04:24:09;8.97;;;3.70;;
7527;SDS011;3805;49.006;8.514;2023-03-31T04:27:07;5.07;;;3.37;;
7527;SDS011;3805;49.006;8.514;2023-03-31T04:29:57;5.33;;;3.10;;
7527;SDS011;3805;49.006;8.514;2023-03-31T04:32:46;6.60;;;3.80;;
7527;SDS011;3805;49.006;8.514;2023-03-31T04:35:36;9.87;;;4.23;;
7527;SDS011;3805;49.006;8.514;2023-03-31T04:38:35;4.37;;;3.37;;
7527;SDS011;3805;49.006;8.514;2023-03-31T04:41:24;4.60;;;3.40;;
7527;SDS011;3805;49.006;8.514;2023-03-31T04:44:13;10.27;;;4.07;;
7527;SDS011;3805;49.006;8.514;2023-03-31T04:47:03;8.60;;;4.87;;
7527;SDS011;3805;49.006;8.514;2023-03-31T04:49:52;6.00;;;4.40;;
7527;SDS011;3805;49.006;8.514;2023-03-31T04:52:41;3.87;;;3.57;;
7527;SDS011;3805;49.006;8.514;2023-03-31T04:55:30;5.30;;;4.30;;
7527;SDS011;3805;49.006;8.514;2023-03-31T04:58:18;4.10;;;3.73;;
7527;SDS011;3805;49.006;8.514;2023-03-31T05:01:07;5.40;;;3.57;;
7527;SDS011;3805;49.006;8.514;2023-03-31T05:03:57;5.90;;;3.60;;
7527;SDS011;3805;49.006;8.514;2023-03-31T05:06:46;4.63;;;4.23;;
7527;SDS011;3805;49.006;8.514;2023-03-31T05:09:34;6.20;;;4.07;;
7527;SDS011;3805;49.006;8.514;2023-03-31T05:12:23;4.80;;;4.30;;
7527;SDS011;3805;49.006;8.514;2023-03-31T05:15:12;5.27;;;3.77;;
7527;SDS011;3805;49.006;8.514;2023-03-31T05:18:00;6.03;;;4.23;;
7527;SDS011;3805;49.006;8.514;2023-03-31T05:20:50;4.73;;;3.97;;
7527;SDS011;3805;49.006;8.514;2023-03-31T05:23:39;14.97;;;4.70;;
7527;SDS011;3805;49.006;8.514;2023-03-31T05:26:27;7.43;;;4.50;;
7527;SDS011;3805;49.006;8.514;2023-03-31T05:29:16;6.00;;;4.30;;
7527;SDS011;3805;49.006;8.514;2023-03-31T05:32:04;7.53;;;4.67;;
7527;SDS011;3805;49.006;8.514;2023-03-31T05:34:53;6.47;;;4.43;;
7527;SDS011;3805;49.006;8.514;2023-03-31T05:37:45;11.53;;;4.40;;
7527;SDS011;3805;49.006;8.514;2023-03-31T05:40:33;5.63;;;4.80;;
7527;SDS011;3805;49.006;8.514;2023-03-31T05:43:22;14.03;;;5.30;;
7527;SDS011;3805;49.006;8.514;2023-03-31T05:46:10;6.63;;;4.80;;
7527;SDS011;3805;49.006;8.514;2023-03-31T05:49:00;7.27;;;5.03;;
7527;SDS011;3805;49.006;8.514;2023-03-31T05:51:48;8.97;;;5.80;;
7527;SDS011;3805;49.006;8.514;2023-03-31T05:54:39;6.30;;;5.07;;
7527;SDS011;3805;49.006;8.514;2023-03-31T05:57:28;6.07;;;5.47;;
7527;SDS011;3805;49.006;8.514;2023-03-31T06:00:18;11.73;;;5.73;;
7527;SDS011;3805;49.006;8.514;2023-03-31T06:03:06;10.53;;;6.13;;
7527;SDS011;3805;49.006;8.514;2023-03-31T06:05:55;6.77;;;5.80;;
7527;SDS011;3805;49.006;8.514;2023-03-31T06:08:45;6.60;;;5.80;;
7527;SDS011;3805;49.006;8.514;2023-03-31T06:11:35;12.47;;;6.37;;
7527;SDS011;3805;49.006;8.514;2023-03-31T06:14:23;8.83;;;6.20;;
7527;SDS011;3805;49.006;8.514;2023-03-31T06:17:12;7.77;;;5.80;;
7527;SDS011;3805;49.006;8.514;2023-03-31T06:20:01;10.00;;;6.30;;
7527;SDS011;3805;49.006;8.514;2023-03-31T06:23:10;12.53;;;6.70;;
7527;SDS011;3805;49.006;8.514;2023-03-31T06:25:59;7.73;;;3.97;;
7527;SDS011;3805;49.006;8.514;2023-03-31T06:28:50;6.40;;;4.57;;
7527;SDS011;3805;49.006;8.514;2023-03-31T06:31:39;5.03;;;4.40;;
7527;SDS011;3805;49.006;8.514;2023-03-31T06:34:27;5.70;;;3.87;;
7527;SDS011;3805;49.006;8.514;2023-03-31T06:37:16;7.23;;;5.60;;
7527;SDS011;3805;49.006;8.514;2023-03-31T06:40:05;7.93;;;6.17;;
7527;SDS011;3805;49.006;8.514;2023-03-31T06:42:54;7.17;;;5.30;;
7527;SDS011;3805;49.006;8.514;2023-03-31T06:45:44;7.00;;;6.03;;
7527;SDS011;3805;49.006;8.514;2023-03-31T06:48:33;6.83;;;5.37;;
7527;SDS011;3805;49.006;8.514;2023-03-31T06:51:21;6.57;;;5.37;;
7527;SDS011;3805;49.006;8.514;2023-03-31T06:54:10;11.63;;;4.87;;
7527;SDS011;3805;49.006;8.514;2023-03-31T06:56:58;8.70;;;5.27;;
7527;SDS011;3805;49.006;8.514;2023-03-31T06:59:47;5.50;;;4.13;;
7527;SDS011;3805;49.006;8.514;2023-03-31T07:02:37;7.37;;;4.40;;
7527;SDS011;3805;49.006;8.514;2023-03-31T07:05:25;7.70;;;4.13;;
7527;SDS011;3805;49.006;8.514;2023-03-31T07:08:14;4.47;;;4.07;;
7527;SDS011;3805;49.006;8.514;2023-03-31T07:11:04;4.83;;;3.93;;
7527;SDS011;3805;49.006;8.514;2023-03-31T07:13:53;5.97;;;3.60;;
7527;SDS011;3805;49.006;8.514;2023-03-31T07:16:42;3.60;;;3.00;;
7527;SDS011;3805;49.006;8.514;2023-03-31T07:19:32;6.70;;;2.90;;
7527;SDS011;3805;49.006;8.514;2023-03-31T07:22:23;3.70;;;3.00;;
7527;SDS011;3805;49.006;8.514;2023-03-31T07:25:13;3.20;;;2.80;;
7527;SDS011;3805;49.006;8.514;2023-03-31T07:28:02;3.20;;;2.90;;
7527;SDS011;3805;49.006;8.514;2023-03-31T07:30:51;7.33;;;2.80;;
7527;SDS011;3805;49.006;8.514;2023-03-31T07:33:40;2.83;;;2.63;;
7527;SDS011;3805;49.006;8.514;2023-03-31T07:36:30;2.40;;;2.20;;
7527;SDS011;3805;49.006;8.514;2023-03-31T07:39:19;5.13;;;2.60;;
7527;SDS011;3805;49.006;8.514;2023-03-31T07:42:07;3.07;;;2.50;;
7527;SDS011;3805;49.006;8.514;2023-03-31T07:44:56;4.20;;;2.40;;
7527;SDS011;3805;49.006;8.514;2023-03-31T07:47:44;2.90;;;2.70;;
7527;SDS011;3805;49.006;8.514;2023-03-31T07:50:34;6.17;;;2.60;;
7527;SDS011;3805;49.006;8.514;2023-03-31T07:53:24;2.63;;;1.90;;
7527;SDS011;3805;49.006;8.514;2023-03-31T07:56:12;5.33;;;2.40;;
7527;SDS011;3805;49.006;8.514;2023-03-31T07:59:02;3.50;;;2.93;;
7527;SDS011;3805;49.006;8.514;2023-03-31T08:01:51;6.20;;;2.80;;
7527;SDS011;3805;49.006;8.514;2023-03-31T08:04:40;7.50;;;2.57;;
7527;SDS011;3805;49.006;8.514;2023-03-31T08:07:31;3.27;;;2.20;;
7527;SDS011;3805;49.006;8.514;2023-03-31T08:10:23;2.63;;;2.30;;
7527;SDS011;3805;49.006;8.514;2023-03-31T08:13:12;3.10;;;2.00;;
7527;SDS011;3805;49.006;8.514;2023-03-31T08:16:01;6.13;;;2.57;;
7527;SDS011;3805;49.006;8.514;2023-03-31T08:18:51;2.80;;;2.47;;
7527;SDS011;3805;49.006;8.514;2023-03-31T08:21:40;3.10;;;1.90;;
7527;SDS011;3805;49.006;8.514;2023-03-31T08:24:28;2.20;;;2.00;;
7527;SDS011;3805;49.006;8.514;2023-03-31T08:27:18;6.03;;;2.00;;
7527;SDS011;3805;49.006;8.514;2023-03-31T08:30:07;3.00;;;2.20;;
7527;SDS011;3805;49.006;8.514;2023-03-31T08:32:57;5.20;;;2.80;;
7527;SDS011;3805;49.006;8.514;2023-03-31T08:35:46;3.80;;;2.30;;
7527;SDS011;3805;49.006;8.514;2023-03-31T08:38:35;7.67;;;2.97;;
7527;SDS011;3805;49.006;8.514;2023-03-31T08:41:40;2.80;;;2.47;;
7527;SDS011;3805;49.006;8.514;2023-03-31T08:44:38;5.60;;;3.13;;
7527;SDS011;3805;49.006;8.514;2023-03-31T08:47:30;6.30;;;2.20;;
7527;SDS011;3805;49.006;8.514;2023-03-31T08:50:22;4.00;;;2.30;;
7527;SDS011;3805;49.006;8.514;2023-03-31T08:53:15;3.23;;;2.03;;
7527;SDS011;3805;49.006;8.514;2023-03-31T08:56:08;5.97;;;2.80;;
7527;SDS011;3805;49.006;8.514;2023-03-31T08:59:02;2.40;;;2.03;;
7527;SDS011;3805;49.006;8.514;2023-03-31T09:01:54;3.77;;;2.43;;
7527;SDS011;3805;49.006;8.514;2023-03-31T09:04:49;3.80;;;2.17;;
7527;SDS011;3805;49.006;8.514;2023-03-31T09:07:56;5.80;;;3.20;;
7527;SDS011;3805;49.006;8.514;2023-03-31T09:10:50;3.80;;;2.83;;
7527;SDS011;3805;49.006;8.514;2023-03-31T09:13:45;5.53;;;3.27;;
7527;SDS011;3805;49.006;8.514;2023-03-31T09:16:45;3.50;;;2.43;;
7527;SDS011;3805;49.006;8.514;2023-03-31T09:19:38;4.30;;;2.43;;
7527;SDS011;3805;49.006;8.514;2023-03-31T09:22:30;2.87;;;1.80;;
7527;SDS011;3805;49.006;8.514;2023-03-31T09:25:20;5.20;;;2.50;;
7527;SDS011;3805;49.006;8.514;2023-03-31T09:28:12;4.83;;;3.00;;
7527;SDS011;3805;49.006;8.514;2023-03-31T09:31:03;3.37;;;2.10;;
7527;SDS011;3805;49.006;8.514;2023-03-31T09:33:59;4.47;;;2.50;;
7527;SDS011;3805;49.006;8.514;2023-03-31T09:36:49;3.80;;;2.40;;
7527;SDS011;3805;49.006;8.514;2023-03-31T09:39:38;7.23;;;3.03;;
7527;SDS011;3805;49.006;8.514;2023-03-31T09:42:27;7.23;;;2.70;;
7527;SDS011;3805;49.006;8.514;2023-03-31T09:45:16;5.97;;;2.47;;
7527;SDS011;3805;49.006;8.514;2023-03-31T09:48:09;6.47;;;2.20;;
7527;SDS011;3805;49.006;8.514;2023-03-31T09:51:00;5.77;;;2.67;;
7527;SDS011;3805;49.006;8.514;2023-03-31T09:53:52;4.10;;;3.10;;
7527;SDS011;3805;49.006;8.514;2023-03-31T09:56:46;7.10;;;2.97;;
7527;SDS011;3805;49.006;8.514;2023-03-31T09:59:38;5.43;;;2.30;;
7527;SDS011;3805;49.006;8.514;2023-03-31T10:02:36;4.57;;;2.00;;
7527;SDS011;3805;49.006;8.514;2023-03-31T10:05:28;7.60;;;2.93;;
7527;SDS011;3805;49.006;8.514;2023-03-31T10:08:19;8.00;;;3.20;;
7527;SDS011;3805;49.006;8.514;2023-03-31T10:11:12;7.80;;;2.47;;
7527;SDS011;3805;49.006;8.514;2023-03-31T10:13:45;5.80;;;2.90;;
7527;SDS011;3805;49.006;8.514;2023-03-31T10:16:19;5.73;;;2.87;;
7527;SDS011;3805;49.006;8.514;2023-03-31T10:18:49;9.47;;;3.43;;
7527;SDS011;3805;49.006;8.514;2023-03-31T10:21:19;3.83;;;2.53;;
7527;SDS011;3805;49.006;8.514;2023-03-31T10:23:49;5.73;;;2.60;;
7527;SDS011;3805;49.006;8.514;2023-03-31T10:26:20;7.20;;;2.53;;
7527;SDS011;3805;49.006;8.514;2023-03-31T10:28:50;3.17;;;2.23;;
7527;SDS011;3805;49.006;8.514;2023-03-31T10:31:23;4.70;;;2.30;;
7527;SDS011;3805;49.006;8.514;2023-03-31T10:33:53;5.10;;;2.30;;
7527;SDS011;3805;49.006;8.514;2023-03-31T10:36:22;7.97;;;2.57;;
7527;SDS011;3805;49.006;8.514;2023-03-31T10:38:53;3.60;;;2.10;;
7527;SDS011;3805;49.006;8.514;2023-03-31T10:41:24;6.10;;;3.07;;
7527;SDS011;3805;49.006;8.514;2023-03-31T10:43:54;5.67;;;2.40;;
7527;SDS011;3805;49.006;8.514;2023-03-31T10:46:38;4.57;;;2.20;;
7527;SDS011;3805;49.006;8.514;2023-03-31T10:49:13;7.90;;;2.90;;
7527;SDS011;3805;49.006;8.514;2023-03-31T10:51:50;5.33;;;2.47;;
7527;SDS011;3805;49.006;8.514;2023-03-31T10:54:19;4.10;;;1.97;;
7527;SDS011;3805;49.006;8.514;2023-03-31T10:56:49;3.97;;;2.20;;
7527;SDS011;3805;49.006;8.514;2023-03-31T10:59:26;3.63;;;1.80;;
7527;SDS011;3805;49.006;8.514;2023-03-31T11:02:19;3.93;;;1.50;;
7527;SDS011;3805;49.006;8.514;2023-03-31T11:05:02;4.73;;;1.67;;
7527;SDS011;3805;49.006;8.514;2023-03-31T11:07:39;3.67;;;1.50;;
7527;SDS011;3805;49.006;8.514;2023-03-31T11:10:18;2.97;;;1.60;;
7527;SDS011;3805;49.006;8.514;2023-03-31T11:12:54;4.03;;;1.47;;
7527;SDS011;3805;49.006;8.514;2023-03-31T11:15:27;2.07;;;1.30;;
7527;SDS011;3805;49.006;8.514;2023-03-31T11:18:03;1.93;;;1.40;;
7527;SDS011;3805;49.006;8.514;2023-03-31T11:20:39;2.13;;;1.60;;
7527;SDS011;3805;49.006;8.514;2023-03-31T11:23:13;2.90;;;1.30;;
7527;SDS011;3805;49.006;8.514;2023-03-31T11:25:48;2.40;;;1.50;;
7527;SDS011;3805;49.006;8.514;2023-03-31T11:28:26;5.80;;;1.50;;
7527;SDS011;3805;49.006;8.514;2023-03-31T11:31:07;1.10;;;1.00;;
7527;SDS011;3805;49.006;8.514;2023-03-31T11:33:53;5.03;;;1.40;;
7527;SDS011;3805;49.006;8.514;2023-03-31T11:36:41;2.10;;;1.10;;
7527;SDS011;3805;49.006;8.514;2023-03-31T11:39:21;1.40;;;1.20;;
7527;SDS011;3805;49.006;8.514;2023-03-31T11:42:07;2.77;;;1.30;;
7527;SDS011;3805;49.006;8.514;2023-03-31T11:44:42;1.70;;;1.37;;
7527;SDS011;3805;49.006;8.514;2023-03-31T11:47:18;1.70;;;1.20;;
7527;SDS011;3805;49.006;8.514;2023-03-31T11:49:50;2.20;;;1.20;;
7527;SDS011;3805;49.006;8.514;2023-03-31T11:52:21;2.53;;;1.50;;
7527;SDS011;3805;49.006;8.514;2023-03-31T11:55:13;2.07;;;1.40;;
7527;SDS011;3805;49.006;8.514;2023-03-31T11:58:03;1.60;;;1.37;;
7527;SDS011;3805;49.006;8.514;2023-03-31T12:00:56;1.73;;;1.40;;
7527;SDS011;3805;49.006;8.514;2023-03-31T12:03:52;4.00;;;1.33;;
7527;SDS011;3805;49.006;8.514;2023-03-31T12:06:43;2.27;;;1.50;;
7527;SDS011;3805;49.006;8.514;2023-03-31T12:09:34;4.90;;;1.37;;
7527;SDS011;3805;49.006;8.514;2023-03-31T12:12:26;2.90;;;1.40;;
7527;SDS011;3805;49.006;8.514;2023-03-31T12:15:18;5.00;;;1.63;;
7527;SDS011;3805;49.006;8.514;2023-03-31T12:18:11;2.73;;;1.40;;
7527;SDS011;3805;49.006;8.514;2023-03-31T12:21:02;3.10;;;1.67;;
7527;SDS011;3805;49.006;8.514;2023-03-31T12:23:52;2.60;;;1.20;;
7527;SDS011;3805;49.006;8.514;2023-03-31T12:26:42;2.17;;;1.53;;
7527;SDS011;3805;49.006;8.514;2023-03-31T12:29:38;1.87;;;1.30;;
7527;SDS011;3805;49.006;8.514;2023-03-31T12:32:29;2.67;;;1.30;;
7527;SDS011;3805;49.006;8.514;2023-03-31T12:35:20;4.83;;;2.03;;
7527;SDS011;3805;49.006;8.514;2023-03-31T12:38:14;5.23;;;1.23;;
7527;SDS011;3805;49.006;8.514;2023-03-31T12:41:09;1.73;;;1.60;;
7527;SDS011;3805;49.006;8.514;2023-03-31T12:44:07;7.00;;;2.10;;
7527;SDS011;3805;49.006;8.514;2023-03-31T12:47:08;2.00;;;1.70;;
7527;SDS011;3805;49.006;8.514;2023-03-31T12:50:21;2.70;;;2.50;;
7527;SDS011;3805;49.006;8.514;2023-03-31T12:53:18;3.10;;;1.30;;
7527;SDS011;3805;49.006;8.514;2023-03-31T12:56:11;2.63;;;1.43;;
7527;SDS011;3805;49.006;8.514;2023-03-31T13:02:24;3.73;;;1.73;;
7527;SDS011;3805;49.006;8.514;2023-03-31T13:08:50;2.33;;;1.33;;
7527;SDS011;3805;49.006;8.514;2023-03-31T13:11:40;3.03;;;1.10;;
7527;SDS011;3805;49.006;8.514;2023-03-31T13:14:35;2.63;;;1.60;;
7527;SDS011;3805;49.006;8.514;2023-03-31T13:17:28;3.53;;;1.53;;
7527;SDS011;3805;49.006;8.514;2023-03-31T13:20:33;3.10;;;1.40;;
7527;SDS011;3805;49.006;8.514;2023-03-31T13:23:25;2.00;;;1.20;;
7527;SDS011;3805;49.006;8.514;2023-03-31T13:29:37;3.10;;;1.47;;
7527;SDS011;3805;49.006;8.514;2023-03-31T13:32:26;1.77;;;1.27;;
7527;SDS011;3805;49.006;8.514;2023-03-31T13:35:16;2.80;;;1.60;;
7527;SDS011;3805;49.006;8.514;2023-03-31T13:38:07;3.03;;;1.57;;
7527;SDS011;3805;49.006;8.514;2023-03-31T13:41:03;3.17;;;1.50;;
7527;SDS011;3805;49.006;8.514;2023-03-31T13:44:04;2.53;;;2.07;;
7527;SDS011;3805;49.006;8.514;2023-03-31T13:47:14;3.13;;;1.70;;
7527;SDS011;3805;49.006;8.514;2023-03-31T13:53:21;3.83;;;1.43;;
7527;SDS011;3805;49.006;8.514;2023-03-31T14:02:28;4.10;;;1.33;;
7527;SDS011;3805;49.006;8.514;2023-03-31T14:05:29;3.47;;;1.50;;
7527;SDS011;3805;49.006;8.514;2023-03-31T14:08:24;2.00;;;1.20;;
7527;SDS011;3805;49.006;8.514;2023-03-31T14:11:20;1.90;;;1.30;;
7527;SDS011;3805;49.006;8.514;2023-03-31T14:14:10;2.80;;;1.67;;
7527;SDS011;3805;49.006;8.514;2023-03-31T14:17:00;2.23;;;1.50;;
7527;SDS011;3805;49.006;8.514;2023-03-31T14:19:53;3.57;;;1.67;;
7527;SDS011;3805;49.006;8.514;2023-03-31T14:22:57;2.30;;;1.57;;
7527;SDS011;3805;49.006;8.514;2023-03-31T14:26:07;2.50;;;1.67;;
7527;SDS011;3805;49.006;8.514;2023-03-31T14:29:05;3.50;;;1.60;;
7527;SDS011;3805;49.006;8.514;2023-03-31T14:32:00;1.90;;;1.10;;
7527;SDS011;3805;49.006;8.514;2023-03-31T14:34:56;2.47;;;1.97;;
7527;SDS011;3805;49.006;8.514;2023-03-31T14:38:10;1.87;;;1.40;;
7527;SDS011;3805;49.006;8.514;2023-03-31T14:41:01;1.87;;;1.20;;
7527;SDS011;3805;49.006;8.514;2023-03-31T14:43:50;3.50;;;1.47;;
7527;SDS011;3805;49.006;8.514;2023-03-31T14:46:41;3.60;;;1.47;;
7527;SDS011;3805;49.006;8.514;2023-03-31T14:49:33;2.50;;;1.80;;
7527;SDS011;3805;49.006;8.514;2023-03-31T14:52:22;1.60;;;1.50;;
7527;SDS011;3805;49.006;8.514;2023-03-31T14:55:12;3.13;;;1.43;;
7527;SDS011;3805;49.006;8.514;2023-03-31T14:58:02;3.60;;;1.40;;
7527;SDS011;3805;49.006;8.514;2023-03-31T15:00:51;2.17;;;1.60;;
7527;SDS011;3805;49.006;8.514;2023-03-31T15:03:21;2.60;;;1.60;;
7527;SDS011;3805;49.006;8.514;2023-03-31T15:06:08;4.80;;;1.40;;
7527;SDS011;3805;49.006;8.514;2023-03-31T15:08:56;2.27;;;1.63;;
7527;SDS011;3805;49.006;8.514;2023-03-31T15:11:45;3.53;;;1.63;;
7527;SDS011;3805;49.006;8.514;2023-03-31T15:14:35;2.70;;;1.40;;
7527;SDS011;3805;49.006;8.514;2023-03-31T15:17:27;3.23;;;1.30;;
7527;SDS011;3805;49.006;8.514;2023-03-31T15:20:30;3.50;;;1.93;;
7527;SDS011;3805;49.006;8.514;2023-03-31T15:23:01;5.67;;;1.80;;
7527;SDS011;3805;49.006;8.514;2023-03-31T15:25:33;2.63;;;1.73;;
7527;SDS011;3805;49.006;8.514;2023-03-31T15:28:05;2.80;;;1.50;;
7527;SDS011;3805;49.006;8.514;2023-03-31T15:30:34;3.03;;;1.60;;
7527;SDS011;3805;49.006;8.514;2023-03-31T15:33:04;6.00;;;1.83;;
7527;SDS011;3805;49.006;8.514;2023-03-31T15:35:55;3.60;;;1.60;;
7527;SDS011;3805;49.006;8.514;2023-03-31T15:38:24;3.67;;;2.17;;
7527;SDS011;3805;49.006;8.514;2023-03-31T15:40:54;4.03;;;1.77;;
7527;SDS011;3805;49.006;8.514;2023-03-31T15:43:26;3.07;;;1.90;;
7527;SDS011;3805;49.006;8.514;2023-03-31T15:45:56;2.20;;;1.60;;
7527;SDS011;3805;49.006;8.514;2023-03-31T15:48:28;6.50;;;2.00;;
7527;SDS011;3805;49.006;8.514;2023-03-31T15:51:01;2.17;;;1.30;;
7527;SDS011;3805;49.006;8.514;2023-03-31T15:53:34;4.70;;;1.83;;
7527;SDS011;3805;49.006;8.514;2023-03-31T15:56:04;8.37;;;1.60;;
7527;SDS011;3805;49.006;8.514;2023-03-31T15:58:47;3.93;;;1.37;;
7527;SDS011;3805;49.006;8.514;2023-03-31T16:01:21;3.10;;;1.40;;
7527;SDS011;3805;49.006;8.514;2023-03-31T16:03:51;2.07;;;1.47;;
7527;SDS011;3805;49.006;8.514;2023-03-31T16:06:42;2.80;;;1.53;;
7527;SDS011;3805;49.006;8.514;2023-03-31T16:09:37;1.47;;;1.30;;
7527;SDS011;3805;49.006;8.514;2023-03-31T16:12:27;1.30;;;1.20;;
7527;SDS011;3805;49.006;8.514;2023-03-31T16:15:18;1.97;;;1.33;;
7527;SDS011;3805;49.006;8.514;2023-03-31T16:18:12;3.37;;;1.20;;
7527;SDS011;3805;49.006;8.514;2023-03-31T16:21:04;1.77;;;1.30;;
7527;SDS011;3805;49.006;8.514;2023-03-31T16:23:56;2.27;;;1.20;;
7527;SDS011;3805;49.006;8.514;2023-03-31T16:26:46;1.70;;;1.40;;
7527;SDS011;3805;49.006;8.514;2023-03-31T16:29:35;1.87;;;1.27;;
7527;SDS011;3805;49.006;8.514;2023-03-31T16:32:24;1.20;;;1.00;;
7527;SDS011;3805;49.006;8.514;2023-03-31T16:35:13;2.43;;;1.20;;
7527;SDS011;3805;49.006;8.514;2023-03-31T16:37:41;1.73;;;1.33;;
7527;SDS011;3805;49.006;8.514;2023-03-31T16:40:11;2.80;;;1.63;;
7527;SDS011;3805;49.006;8.514;2023-03-31T16:42:40;3.20;;;1.63;;
7527;SDS011;3805;49.006;8.514;2023-03-31T16:45:08;1.83;;;1.30;;
7527;SDS011;3805;49.006;8.514;2023-03-31T16:47:40;3.17;;;1.23;;
7527;SDS011;3805;49.006;8.514;2023-03-31T16:50:11;2.97;;;1.47;;
7527;SDS011;3805;49.006;8.514;2023-03-31T16:52:41;5.17;;;1.97;;
7527;SDS011;3805;49.006;8.514;2023-03-31T16:55:11;3.10;;;1.60;;
7527;SDS011;3805;49.006;8.514;2023-03-31T16:57:39;3.70;;;2.00;;
7527;SDS011;3805;49.006;8.514;2023-03-31T17:00:08;1.60;;;1.50;;
7527;SDS011;3805;49.006;8.514;2023-03-31T17:02:37;1.60;;;1.50;;
7527;SDS011;3805;49.006;8.514;2023-03-31T17:05:06;3.40;;;2.50;;
7527;SDS011;3805;49.006;8.514;2023-03-31T17:07:39;3.90;;;2.10;;
7527;SDS011;3805;49.006;8.514;2023-03-31T17:10:07;5.33;;;2.30;;
7527;SDS011;3805;49.006;8.514;2023-03-31T17:12:37;5.33;;;2.37;;
7527;SDS011;3805;49.006;8.514;2023-03-31T17:15:06;5.20;;;2.20;;
7527;SDS011;3805;49.006;8.514;2023-03-31T17:17:35;3.17;;;1.50;;
7527;SDS011;3805;49.006;8.514;2023-03-31T17:20:04;2.03;;;1.40;;
7527;SDS011;3805;49.006;8.514;2023-03-31T17:22:33;4.37;;;1.63;;
7527;SDS011;3805;49.006;8.514;2023-03-31T17:25:02;2.73;;;1.53;;
7527;SDS011;3805;49.006;8.514;2023-03-31T17:27:31;2.13;;;1.40;;
7527;SDS011;3805;49.006;8.514;2023-03-31T17:30:01;2.70;;;1.40;;
7527;SDS011;3805;49.006;8.514;2023-03-31T17:32:35;1.80;;;1.50;;
7527;SDS011;3805;49.006;8.514;2023-03-31T17:35:04;4.23;;;1.33;;
7527;SDS011;3805;49.006;8.514;2023-03-31T17:37:33;1.40;;;1.23;;
7527;SDS011;3805;49.006;8.514;2023-03-31T17:40:01;2.20;;;1.50;;
7527;SDS011;3805;49.006;8.514;2023-03-31T17:42:31;1.40;;;1.30;;
7527;SDS011;3805;49.006;8.514;2023-03-31T17:45:01;1.67;;;1.57;;
7527;SDS011;3805;49.006;8.514;2023-03-31T17:47:29;2.30;;;1.67;;
7527;SDS011;3805;49.006;8.514;2023-03-31T17:49:58;2.27;;;2.07;;